createdAt,value
2018-07-30T00:00:17.201Z,23.50
2018-07-30T00:02:45.439Z,23.50
2018-07-30T00:05:14.475Z,23.50
2018-07-30T00:07:42.719Z,23.50
2018-07-30T00:10:11.721Z,23.40
2018-07-30T00:12:39.990Z,23.40
2018-07-30T00:15:08.233Z,23.30
2018-07-30T00:17:36.490Z,23.30
2018-07-30T00:20:04.760Z,23.10
2018-07-30T00:22:33.015Z,23.00
2018-07-30T00:25:01.264Z,23.20
2018-07-30T00:27:29.499Z,23.40
2018-07-30T00:29:58.000Z,23.60
2018-07-30T00:32:26.248Z,23.60
2018-07-30T00:34:54.488Z,23.40
2018-07-30T00:37:22.749Z,23.50
2018-07-30T00:39:50.997Z,23.60
2018-07-30T00:42:20.110Z,23.50
2018-07-30T00:44:48.359Z,23.50
2018-07-30T00:47:16.609Z,23.50
2018-07-30T00:52:20.073Z,23.00
2018-07-30T00:54:49.087Z,22.90
2018-07-30T00:57:17.332Z,22.90
2018-07-30T00:59:46.486Z,22.70
2018-07-30T01:02:14.730Z,22.70
2018-07-30T01:04:42.977Z,22.60
2018-07-30T01:07:12.021Z,22.60
2018-07-30T01:09:40.247Z,22.60
2018-07-30T01:12:09.266Z,22.70
2018-07-30T01:14:37.501Z,22.70
2018-07-30T01:17:06.506Z,22.70
2018-07-30T01:19:35.523Z,22.70
2018-07-30T01:22:03.767Z,22.70
2018-07-30T01:24:32.775Z,22.70
2018-07-30T01:27:01.367Z,22.60
2018-07-30T01:29:29.597Z,22.90
2018-07-30T01:31:57.841Z,22.90
2018-07-30T01:34:26.347Z,22.80
2018-07-30T01:36:54.586Z,22.80
2018-07-30T01:39:22.826Z,22.70
2018-07-30T01:41:51.841Z,22.50
2018-07-30T01:44:20.081Z,22.40
2018-07-30T01:46:49.090Z,22.30
2018-07-30T01:49:18.100Z,22.30
2018-07-30T01:51:46.355Z,22.20
2018-07-30T01:54:15.369Z,22.50
2018-07-30T01:56:43.630Z,22.40
2018-07-30T01:59:11.877Z,22.60
2018-07-30T02:01:40.894Z,22.90
2018-07-30T02:04:09.134Z,22.90
2018-07-30T02:06:37.386Z,22.80
2018-07-30T02:09:05.631Z,22.50
2018-07-30T02:11:33.881Z,22.30
2018-07-30T02:14:02.897Z,22.20
2018-07-30T02:16:31.138Z,22.20
2018-07-30T02:19:00.146Z,22.40
2018-07-30T02:21:29.177Z,22.30
2018-07-30T02:23:57.406Z,22.30
2018-07-30T02:26:26.434Z,22.20
2018-07-30T02:28:54.677Z,22.20
2018-07-30T02:31:23.738Z,22.20
2018-07-30T02:33:51.954Z,22.20
2018-07-30T02:36:20.975Z,22.30
2018-07-30T02:38:49.205Z,22.30
2018-07-30T02:41:18.209Z,22.10
2018-07-30T02:43:46.469Z,22.10
2018-07-30T02:46:15.510Z,21.70
2018-07-30T02:48:43.747Z,21.70
2018-07-30T02:51:12.771Z,21.90
2018-07-30T02:53:41.102Z,21.90
2018-07-30T02:56:09.318Z,22.00
2018-07-30T02:58:37.582Z,21.90
2018-07-30T03:01:05.824Z,21.80
2018-07-30T03:03:34.862Z,21.50
2018-07-30T03:06:03.117Z,21.50
2018-07-30T03:08:32.119Z,21.50
2018-07-30T03:11:00.384Z,21.50
2018-07-30T03:13:28.638Z,21.40
2018-07-30T03:15:57.643Z,21.40
2018-07-30T03:18:26.665Z,21.30
2018-07-30T03:20:54.914Z,21.30
2018-07-30T03:23:23.946Z,21.20
2018-07-30T03:25:52.182Z,21.20
2018-07-30T03:28:20.436Z,21.30
2018-07-30T03:30:48.687Z,21.40
2018-07-30T03:33:16.929Z,21.40
2018-07-30T03:35:45.193Z,21.40
2018-07-30T03:38:13.466Z,21.40
2018-07-30T03:40:41.709Z,21.40
2018-07-30T03:43:09.990Z,21.40
2018-07-30T03:45:38.193Z,21.40
2018-07-30T03:48:06.522Z,21.50
2018-07-30T03:50:35.766Z,21.40
2018-07-30T03:53:04.013Z,21.40
2018-07-30T03:55:32.241Z,21.40
2018-07-30T03:58:00.538Z,21.30
2018-07-30T04:00:28.790Z,21.30
2018-07-30T04:02:58.042Z,21.30
2018-07-30T04:05:27.066Z,21.40
2018-07-30T04:07:55.338Z,21.40
2018-07-30T04:10:24.331Z,21.50
2018-07-30T04:12:52.565Z,21.50
2018-07-30T04:15:21.598Z,21.50
2018-07-30T04:17:49.847Z,21.50
2018-07-30T04:20:18.851Z,21.60
2018-07-30T04:22:47.103Z,21.60
2018-07-30T04:25:16.664Z,21.80
2018-07-30T04:27:44.918Z,21.80
2018-07-30T04:30:13.162Z,21.70
2018-07-30T04:32:42.166Z,21.30
2018-07-30T04:35:10.432Z,21.30
2018-07-30T04:37:39.438Z,21.20
2018-07-30T04:40:07.843Z,21.20
2018-07-30T04:42:36.088Z,21.30
2018-07-30T04:45:04.326Z,21.30
2018-07-30T04:47:32.589Z,21.40
2018-07-30T04:50:00.830Z,21.60
2018-07-30T04:52:29.409Z,21.70
2018-07-30T04:54:57.650Z,21.70
2018-07-30T04:57:26.666Z,21.70
2018-07-30T04:59:55.681Z,21.70
2018-07-30T05:02:23.940Z,21.70
2018-07-30T05:04:52.327Z,21.70
2018-07-30T05:07:20.657Z,21.70
2018-07-30T05:09:48.901Z,21.90
2018-07-30T05:12:17.157Z,22.00
2018-07-30T05:14:45.390Z,22.20
2018-07-30T05:17:14.416Z,22.40
2018-07-30T05:19:42.666Z,22.40
2018-07-30T05:22:11.683Z,22.30
2018-07-30T05:24:40.264Z,22.40
2018-07-30T05:27:08.509Z,22.40
2018-07-30T05:29:37.518Z,22.60
2018-07-30T05:32:05.874Z,22.60
2018-07-30T05:34:34.883Z,22.90
2018-07-30T05:37:03.119Z,22.80
2018-07-30T05:39:31.373Z,23.00
2018-07-30T05:41:59.619Z,23.10
2018-07-30T05:44:28.155Z,23.20
2018-07-30T05:46:56.441Z,23.30
2018-07-30T05:49:24.658Z,23.40
2018-07-30T05:51:53.169Z,23.40
2018-07-30T05:54:21.413Z,23.50
2018-07-30T05:56:49.662Z,23.50
2018-07-30T05:59:18.817Z,23.60
2018-07-30T06:01:47.035Z,23.60
2018-07-30T06:04:15.273Z,23.70
2018-07-30T06:06:43.528Z,23.80
2018-07-30T06:09:12.538Z,24.10
2018-07-30T06:11:40.797Z,24.00
2018-07-30T06:14:09.050Z,24.10
2018-07-30T06:16:37.281Z,24.20
2018-07-30T06:19:05.659Z,24.30
2018-07-30T06:21:34.678Z,24.30
2018-07-30T06:24:02.934Z,24.30
2018-07-30T06:26:31.961Z,24.30
2018-07-30T06:29:00.183Z,24.40
2018-07-30T06:31:28.445Z,24.60
2018-07-30T06:33:56.686Z,24.70
2018-07-30T06:36:24.945Z,24.90
2018-07-30T06:38:53.200Z,25.00
2018-07-30T06:41:22.218Z,25.10
2018-07-30T06:43:50.458Z,25.10
2018-07-30T06:46:19.486Z,24.60
2018-07-30T06:48:47.742Z,24.60
2018-07-30T06:51:16.771Z,24.90
2018-07-30T06:53:45.023Z,25.00
2018-07-30T06:56:13.615Z,25.20
2018-07-30T06:58:41.868Z,25.40
2018-07-30T07:01:10.895Z,25.80
2018-07-30T07:03:39.151Z,25.80
2018-07-30T07:06:07.713Z,26.00
2018-07-30T07:08:36.745Z,26.70
2018-07-30T07:11:04.995Z,26.60
2018-07-30T07:13:33.346Z,26.90
2018-07-30T07:16:01.586Z,27.00
2018-07-30T07:18:30.594Z,27.40
2018-07-30T07:20:58.856Z,27.40
2018-07-30T07:23:27.853Z,27.80
2018-07-30T07:25:56.110Z,27.80
2018-07-30T07:28:24.359Z,28.00
2018-07-30T07:30:52.611Z,28.00
2018-07-30T07:33:21.609Z,28.20
2018-07-30T07:35:50.675Z,28.30
2018-07-30T07:38:18.935Z,28.30
2018-07-30T07:40:47.182Z,28.40
2018-07-30T07:43:15.443Z,28.50
2018-07-30T07:45:43.685Z,28.80
2018-07-30T07:48:11.926Z,29.10
2018-07-30T07:50:40.252Z,29.20
2018-07-30T07:53:09.566Z,29.00
2018-07-30T07:55:37.828Z,28.90
2018-07-30T07:58:06.830Z,29.00
2018-07-30T08:00:35.086Z,29.00
2018-07-30T08:03:04.114Z,29.30
2018-07-30T08:05:32.345Z,29.30
2018-07-30T08:08:01.366Z,29.80
2018-07-30T08:10:29.954Z,29.80
2018-07-30T08:12:58.199Z,29.80
2018-07-30T08:15:27.201Z,30.00
2018-07-30T08:17:56.222Z,30.00
2018-07-30T08:20:24.457Z,30.00
2018-07-30T08:22:53.482Z,30.40
2018-07-30T08:25:21.721Z,30.30
2018-07-30T08:27:50.747Z,30.70
2018-07-30T08:30:18.998Z,30.70
2018-07-30T08:32:48.321Z,30.50
2018-07-30T08:35:16.568Z,30.40
2018-07-30T08:37:45.573Z,30.70
2018-07-30T08:40:14.587Z,30.70
2018-07-30T08:42:42.827Z,30.70
2018-07-30T08:45:11.846Z,30.80
2018-07-30T08:47:40.086Z,30.80
2018-07-30T08:50:08.345Z,30.80
2018-07-30T08:52:37.005Z,30.80
2018-07-30T08:55:05.285Z,30.80
2018-07-30T08:57:33.503Z,30.60
2018-07-30T09:00:02.527Z,31.10
2018-07-30T09:02:30.790Z,31.00
2018-07-30T09:04:59.040Z,31.20
2018-07-30T09:07:27.547Z,31.30
2018-07-30T09:09:55.798Z,31.40
2018-07-30T09:12:24.844Z,31.20
2018-07-30T09:14:53.163Z,31.20
2018-07-30T09:17:21.418Z,31.30
2018-07-30T09:19:49.613Z,31.40
2018-07-30T09:22:17.862Z,31.40
2018-07-30T09:24:46.107Z,31.30
2018-07-30T09:27:14.347Z,31.50
2018-07-30T09:29:43.385Z,31.90
2018-07-30T09:32:11.637Z,31.90
2018-07-30T09:34:39.874Z,32.00
2018-07-30T09:37:08.149Z,32.10
2018-07-30T09:39:36.454Z,32.30
2018-07-30T09:42:04.667Z,32.40
2018-07-30T09:47:07.610Z,32.70
2018-07-30T09:49:36.621Z,32.80
2018-07-30T09:52:04.882Z,32.80
2018-07-30T09:54:33.886Z,32.90
2018-07-30T09:57:02.134Z,32.90
2018-07-30T09:59:30.411Z,33.00
2018-07-30T10:01:58.651Z,33.20
2018-07-30T10:04:26.902Z,33.30
2018-07-30T10:06:55.162Z,33.30
2018-07-30T10:09:23.417Z,33.50
2018-07-30T10:11:51.661Z,33.50
2018-07-30T10:14:19.903Z,33.50
2018-07-30T10:16:48.146Z,33.50
2018-07-30T10:19:17.165Z,33.50
2018-07-30T10:21:45.405Z,33.50
2018-07-30T10:24:14.451Z,33.60
2018-07-30T10:26:42.692Z,33.60
2018-07-30T10:29:11.697Z,33.60
2018-07-30T10:31:40.280Z,33.70
2018-07-30T10:34:08.517Z,33.50
2018-07-30T10:36:37.532Z,33.50
2018-07-30T10:39:06.542Z,33.60
2018-07-30T10:41:34.795Z,33.60
2018-07-30T10:44:03.843Z,33.60
2018-07-30T10:46:32.099Z,33.50
2018-07-30T10:49:00.424Z,33.80
2018-07-30T10:51:28.638Z,34.00
2018-07-30T10:53:56.886Z,34.10
2018-07-30T10:56:25.891Z,34.30
2018-07-30T10:58:54.153Z,34.30
2018-07-30T11:01:23.164Z,34.60
2018-07-30T11:03:51.422Z,34.60
2018-07-30T11:06:20.430Z,35.00
2018-07-30T11:08:48.690Z,35.00
2018-07-30T11:11:17.701Z,35.10
2018-07-30T11:13:45.941Z,35.20
2018-07-30T11:16:14.957Z,35.50
2018-07-30T11:18:43.198Z,35.50
2018-07-30T11:21:11.452Z,35.40
2018-07-30T11:23:39.693Z,35.40
2018-07-30T11:26:07.945Z,35.40
2018-07-30T11:28:36.955Z,35.50
2018-07-30T11:31:05.190Z,35.40
2018-07-30T11:33:33.493Z,35.50
2018-07-30T11:36:01.683Z,35.60
2018-07-30T11:38:29.945Z,35.60
2018-07-30T11:40:58.199Z,35.60
2018-07-30T11:43:27.201Z,35.80
2018-07-30T11:45:56.211Z,35.90
2018-07-30T11:48:24.492Z,35.90
2018-07-30T11:50:53.527Z,36.10
2018-07-30T11:53:21.769Z,36.00
2018-07-30T11:55:50.141Z,36.10
2018-07-30T11:58:18.378Z,36.20
2018-07-30T12:00:47.388Z,35.90
2018-07-30T12:03:15.642Z,35.90
2018-07-30T12:05:43.877Z,35.80
2018-07-30T12:08:12.365Z,35.80
2018-07-30T12:10:40.614Z,35.80
2018-07-30T12:13:08.864Z,35.90
2018-07-30T12:15:38.061Z,36.00
2018-07-30T12:18:07.062Z,36.10
2018-07-30T12:20:35.326Z,36.10
2018-07-30T12:23:04.412Z,36.40
2018-07-30T12:25:32.634Z,36.30
2018-07-30T12:28:00.886Z,36.50
2018-07-30T12:30:29.242Z,36.60
2018-07-30T12:32:57.565Z,36.70
2018-07-30T12:35:25.828Z,36.60
2018-07-30T12:37:54.067Z,36.50
2018-07-30T12:40:23.069Z,36.60
2018-07-30T12:42:51.341Z,36.60
2018-07-30T12:45:19.742Z,36.80
2018-07-30T12:47:47.994Z,37.00
2018-07-30T12:50:16.230Z,37.10
2018-07-30T12:52:44.502Z,37.20
2018-07-30T12:55:12.754Z,37.10
2018-07-30T12:57:40.999Z,37.00
2018-07-30T13:00:09.247Z,37.10
2018-07-30T13:02:38.184Z,36.90
2018-07-30T13:05:06.419Z,36.90
2018-07-30T13:07:35.428Z,36.90
2018-07-30T13:10:03.918Z,36.90
2018-07-30T13:12:32.165Z,37.10
2018-07-30T13:15:01.174Z,37.30
2018-07-30T13:17:29.437Z,37.30
2018-07-30T13:19:58.437Z,37.30
2018-07-30T13:22:27.457Z,37.00
2018-07-30T13:24:55.814Z,37.00
2018-07-30T13:27:24.815Z,37.30
2018-07-30T13:29:53.089Z,37.30
2018-07-30T13:32:22.113Z,37.70
2018-07-30T13:34:50.358Z,37.70
2018-07-30T13:37:18.605Z,37.80
2018-07-30T13:39:46.851Z,37.70
2018-07-30T13:42:15.103Z,37.60
2018-07-30T13:44:43.663Z,37.60
2018-07-30T13:47:11.921Z,37.40
2018-07-30T13:49:40.956Z,37.60
2018-07-30T13:52:09.426Z,37.60
2018-07-30T13:54:37.722Z,37.60
2018-07-30T13:57:06.669Z,37.60
2018-07-30T13:59:34.926Z,37.50
2018-07-30T14:02:03.933Z,37.40
2018-07-30T14:04:32.463Z,37.30
2018-07-30T14:07:00.706Z,37.30
2018-07-30T14:09:28.946Z,37.10
2018-07-30T14:11:58.065Z,37.00
2018-07-30T14:14:26.302Z,37.00
2018-07-30T14:16:54.542Z,36.80
2018-07-30T14:19:22.807Z,36.80
2018-07-30T14:21:51.060Z,36.70
2018-07-30T14:24:20.079Z,36.90
2018-07-30T14:26:48.326Z,36.80
2018-07-30T14:29:16.599Z,37.10
2018-07-30T14:31:45.615Z,37.10
2018-07-30T14:34:13.844Z,37.20
2018-07-30T14:36:42.158Z,36.90
2018-07-30T14:39:10.847Z,36.80
2018-07-30T14:41:39.098Z,36.90
2018-07-30T14:44:08.120Z,37.20
2018-07-30T14:46:36.369Z,37.20
2018-07-30T14:49:04.641Z,37.40
2018-07-30T14:51:33.708Z,36.90
2018-07-30T14:54:01.900Z,36.80
2018-07-30T14:56:30.913Z,36.90
2018-07-30T14:58:59.188Z,36.90
2018-07-30T15:01:27.670Z,37.10
2018-07-30T15:03:55.906Z,36.90
2018-07-30T15:06:24.169Z,36.60
2018-07-30T15:08:52.427Z,36.50
2018-07-30T15:11:20.701Z,36.50
2018-07-30T15:13:50.006Z,36.30
2018-07-30T15:16:18.254Z,36.30
2018-07-30T15:18:46.509Z,36.10
2018-07-30T15:21:14.882Z,36.00
2018-07-30T15:23:43.165Z,36.00
2018-07-30T15:26:12.175Z,36.10
2018-07-30T15:28:40.425Z,36.10
2018-07-30T15:31:09.423Z,35.60
2018-07-30T15:33:38.451Z,35.80
2018-07-30T15:36:06.692Z,35.70
2018-07-30T15:38:34.928Z,36.00
2018-07-30T15:41:03.208Z,35.90
2018-07-30T15:43:31.462Z,36.10
2018-07-30T15:45:59.697Z,35.80
2018-07-30T15:48:28.711Z,35.70
2018-07-30T15:50:56.969Z,35.70
2018-07-30T15:53:25.254Z,35.60
2018-07-30T15:55:53.508Z,35.60
2018-07-30T15:58:21.774Z,35.90
2018-07-30T16:00:50.800Z,35.70
2018-07-30T16:03:19.050Z,35.60
2018-07-30T16:05:47.339Z,35.50
2018-07-30T16:08:15.571Z,35.30
2018-07-30T16:10:43.830Z,35.30
2018-07-30T16:13:12.112Z,35.40
2018-07-30T16:15:40.379Z,35.50
2018-07-30T16:18:08.617Z,35.30
2018-07-30T16:20:36.875Z,35.50
2018-07-30T16:23:05.441Z,35.40
2018-07-30T16:25:33.646Z,35.50
2018-07-30T16:28:01.914Z,35.60
2018-07-30T16:30:30.424Z,35.40
2018-07-30T16:33:00.150Z,35.40
2018-07-30T16:35:28.412Z,35.40
2018-07-30T16:37:56.662Z,35.50
2018-07-30T16:40:24.910Z,35.50
2018-07-30T16:42:54.220Z,35.10
2018-07-30T16:45:22.468Z,35.00
2018-07-30T16:47:51.478Z,34.70
2018-07-30T16:50:19.738Z,34.70
2018-07-30T16:52:48.752Z,34.60
2018-07-30T16:55:17.005Z,34.60
2018-07-30T16:57:46.249Z,34.90
2018-07-30T17:00:14.504Z,34.80
2018-07-30T17:02:42.749Z,34.80
2018-07-30T17:05:11.784Z,34.80
2018-07-30T17:07:40.330Z,34.80
2018-07-30T17:10:09.354Z,34.90
2018-07-30T17:12:37.603Z,34.80
2018-07-30T17:15:06.630Z,34.90
2018-07-30T17:17:34.879Z,34.90
2018-07-30T17:20:03.157Z,35.00
2018-07-30T17:22:31.398Z,35.00
2018-07-30T17:24:59.660Z,34.90
2018-07-30T17:27:27.975Z,34.80
2018-07-30T17:29:57.154Z,34.70
2018-07-30T17:32:25.365Z,34.70
2018-07-30T17:34:53.878Z,34.70
2018-07-30T17:37:22.141Z,34.60
2018-07-30T17:39:50.669Z,34.60
2018-07-30T17:42:19.947Z,34.60
2018-07-30T17:44:48.199Z,34.60
2018-07-30T17:47:16.723Z,34.60
2018-07-30T17:49:45.985Z,34.70
2018-07-30T17:52:14.261Z,34.70
2018-07-30T17:54:42.502Z,34.60
2018-07-30T17:57:11.047Z,34.70
2018-07-30T17:59:40.132Z,34.80
2018-07-30T18:02:08.443Z,34.80
2018-07-30T18:04:37.668Z,34.90
2018-07-30T18:07:05.929Z,34.80
2018-07-30T18:09:35.753Z,34.90
2018-07-30T18:12:03.995Z,34.80
2018-07-30T18:14:33.035Z,34.90
2018-07-30T18:17:01.546Z,34.90
2018-07-30T18:19:29.789Z,34.80
2018-07-30T18:21:58.050Z,34.60
2018-07-30T18:24:26.325Z,34.50
2018-07-30T18:26:54.604Z,34.50
2018-07-30T18:29:22.896Z,34.40
2018-07-30T18:31:51.120Z,34.40
2018-07-30T18:34:19.386Z,34.40
2018-07-30T18:36:48.409Z,34.30
2018-07-30T18:39:16.725Z,34.30
2018-07-30T18:41:44.975Z,34.10
2018-07-30T18:44:13.259Z,34.10
2018-07-30T18:46:41.496Z,33.80
2018-07-30T18:49:09.747Z,33.50
2018-07-30T18:51:38.119Z,33.20
2018-07-30T18:54:06.394Z,33.00
2018-07-30T18:56:34.720Z,32.70
2018-07-30T18:59:02.919Z,32.50
2018-07-30T19:01:31.163Z,32.30
2018-07-30T19:03:59.421Z,32.20
2018-07-30T19:06:27.817Z,32.00
2018-07-30T19:08:56.057Z,31.90
2018-07-30T19:11:25.145Z,31.60
2018-07-30T19:13:53.524Z,31.50
2018-07-30T19:16:21.984Z,31.40
2018-07-30T19:18:50.495Z,31.10
2018-07-30T19:21:19.027Z,31.00
2018-07-30T19:23:47.575Z,30.90
2018-07-30T19:26:16.149Z,30.80
2018-07-30T19:28:44.676Z,30.70
2018-07-30T19:31:13.218Z,30.60
2018-07-30T19:33:41.760Z,30.50
2018-07-30T19:36:10.254Z,30.30
2018-07-30T19:38:39.564Z,30.10
2018-07-30T19:41:08.090Z,30.10
2018-07-30T19:43:36.597Z,30.00
2018-07-30T19:46:05.153Z,29.90
2018-07-30T19:48:33.803Z,29.90
2018-07-30T19:51:02.091Z,29.80
2018-07-30T19:53:30.636Z,29.70
2018-07-30T19:55:59.920Z,29.50
2018-07-30T19:58:28.366Z,29.50
2018-07-30T20:00:57.599Z,29.30
2018-07-30T20:03:27.197Z,29.10
2018-07-30T20:05:56.427Z,29.10
2018-07-30T20:08:25.076Z,29.10
2018-07-30T20:10:53.564Z,29.10
2018-07-30T20:13:23.302Z,28.90
2018-07-30T20:15:52.316Z,28.80
2018-07-30T20:18:20.825Z,28.80
2018-07-30T20:20:49.602Z,28.70
2018-07-30T20:23:18.173Z,28.60
2018-07-30T20:25:46.697Z,28.50
2018-07-30T20:28:14.950Z,28.60
2018-07-30T20:30:44.328Z,28.60
2018-07-30T20:33:12.820Z,28.60
2018-07-30T20:35:41.080Z,28.50
2018-07-30T20:38:09.337Z,28.40
2018-07-30T20:40:38.342Z,28.30
2018-07-30T20:43:06.602Z,28.30
2018-07-30T20:45:34.852Z,28.20
2018-07-30T20:48:03.379Z,28.20
2018-07-30T20:50:31.658Z,28.10
2018-07-30T20:53:00.630Z,28.20
2018-07-30T20:55:28.922Z,28.10
2018-07-30T20:57:57.166Z,28.20
2018-07-30T21:00:26.182Z,28.00
2018-07-30T21:02:54.438Z,28.00
2018-07-30T21:05:23.444Z,27.70
2018-07-30T21:07:51.735Z,27.70
2018-07-30T21:10:20.707Z,27.50
2018-07-30T21:12:48.971Z,27.40
2018-07-30T21:15:17.978Z,27.30
2018-07-30T21:17:46.233Z,27.40
2018-07-30T21:20:15.253Z,27.40
2018-07-30T21:22:43.512Z,27.40
2018-07-30T21:25:11.769Z,27.40
2018-07-30T21:27:40.796Z,27.20
2018-07-30T21:30:09.052Z,27.20
2018-07-30T21:32:38.058Z,27.10
2018-07-30T21:35:06.309Z,27.10
2018-07-30T21:37:35.636Z,27.20
2018-07-30T21:40:03.878Z,27.20
2018-07-30T21:42:32.885Z,27.40
2018-07-30T21:45:01.911Z,27.60
2018-07-30T21:47:30.165Z,27.50
2018-07-30T21:49:58.547Z,27.40
2018-07-30T21:52:26.789Z,27.30
2018-07-30T21:54:55.806Z,27.00
2018-07-30T21:57:24.363Z,26.90
2018-07-30T21:59:52.606Z,26.90
2018-07-30T22:02:20.838Z,26.90
2018-07-30T22:04:49.090Z,27.00
2018-07-30T22:07:18.103Z,27.40
2018-07-30T22:09:46.356Z,27.40
2018-07-30T22:12:15.402Z,27.50
2018-07-30T22:14:43.722Z,27.50
2018-07-30T22:17:11.996Z,27.50
2018-07-30T22:19:40.233Z,27.20
2018-07-30T22:22:08.491Z,27.10
2018-07-30T22:24:36.742Z,27.20
2018-07-30T22:27:05.024Z,27.40
2018-07-30T22:29:34.034Z,27.50
2018-07-30T22:32:02.266Z,27.50
2018-07-30T22:34:31.286Z,27.10
2018-07-30T22:36:59.534Z,27.10
2018-07-30T22:39:28.660Z,26.60
2018-07-30T22:41:57.008Z,26.50
2018-07-30T22:44:25.211Z,26.60
2018-07-30T22:46:53.454Z,26.60
2018-07-30T22:49:22.472Z,26.40
2018-07-30T22:51:50.718Z,26.30
2018-07-30T22:54:19.751Z,26.20
2018-07-30T22:56:48.002Z,26.20
2018-07-30T22:59:16.273Z,26.10
2018-07-30T23:01:45.285Z,25.80
2018-07-30T23:04:13.532Z,25.80
2018-07-30T23:06:42.545Z,25.60
2018-07-30T23:09:10.788Z,25.50
2018-07-30T23:11:39.025Z,25.40
2018-07-30T23:14:07.285Z,25.30
2018-07-30T23:16:35.566Z,25.40
2018-07-30T23:19:03.827Z,25.30
2018-07-30T23:21:32.070Z,25.30
2018-07-30T23:24:01.115Z,25.30
2018-07-30T23:26:29.349Z,25.30
2018-07-30T23:28:58.361Z,25.60
2018-07-30T23:31:26.628Z,25.50
2018-07-30T23:33:54.897Z,25.50
2018-07-30T23:36:23.924Z,25.50
2018-07-30T23:38:52.158Z,25.50
2018-07-30T23:41:21.198Z,25.60
2018-07-30T23:43:49.457Z,25.70
2018-07-30T23:46:17.712Z,25.70
2018-07-30T23:48:45.960Z,25.70
2018-07-30T23:51:14.217Z,25.60
2018-07-30T23:53:42.509Z,25.60
2018-07-30T23:56:10.730Z,25.60
2018-07-30T23:58:38.969Z,25.40
